Strongs, MI

9:49 AM EST on December 28, 2014 (GMT -0500)
RAWS REXTON MI US | Change Station
CLOSE
Current Station
Personal Weather Station
Location: Naubinway, MI
Elevation: 861 ft
Nearby Weather Stations

Elev 861 ft 46.15 °N, 85.27 °W | Updated 36 minutes ago

Mostly Cloudy
Mostly Cloudy
19 °F
Feels Like 12 °F
N
5
Wind Variable Wind from West
Gusts 9.0 mph

Today
High -- | Low -- °F
--% Chance of Precip.
Yesterday
High -- | Low -- °F
Precip. -- in
8:23 AM 5:01 PM
Waxing Crescent, 48% visible
Pressure 29.96 in
Visibility 10.0 miles
Clouds Overcast 7000 ft
Windchill 12 °F
Dew Point 17 °F
Humidity 93%
Rainfall 0.00 in
Snow Depth Not available.
UV 0 out of 12
Pollen .10 out of 12
Air Quality Not available.
Flu Activity Not available.
METAR KERY 281435Z AUTO 26012KT 10SM OVC070 M08/M09 A2996 RMK AO2 T10801095

More Conditions Fewer Conditions

Pressure 29.96 in
Visibility 10.0 miles
Clouds Overcast 7000 ft
Windchill 12 °F
Dew Point 17 °F
Humidity 93%
Rainfall 0.00 in
Snow Depth Not available.
UV 0 out of 12
Pollen .10 out of 12
Air Quality Not available.
Flu Activity Not available.
METAR KERY 281435Z AUTO 26012KT 10SM OVC070 M08/M09 A2996 RMK AO2 T10801095

More Conditions Fewer Conditions

Nowcast | as of 9:00 am EST on December 28, 2014

At 10 am...mostly cloudy. Temperature 23. West winds 12 mph. At 12 PM...frequent snow showers. Temperature 25. West winds 13 mph. At 2 PM...frequent snow showers. Temperature 26. West winds 13 mph. At 4 PM...frequent snow showers. Temperature 27. West winds 14 mph.

×

10-Day Weather Forecast

Almanac

Astronomy

Dec. 28, 2014 Rise Set
Actual Time
Civil Twilight
Nautical Twilight
Astronomical Twilight
Moon
Length of Visible Light
Length of Day
Tomorrow will be .
, % of the Moon is Illuminated

Today's Extremes

State Highs State Lows

Community

WunderPhotos

Upload Photos

1,781,274 photos uploaded!

WunderBlogs® & News

Nearby

Air Quality

  Air Quality AQ Index Pollutant
Not available.

Snow Depth

Station Depth Elevation

Earthquake Activity

City Distance Mag. Time & Date
Minimum magnitude displayed is 2.5.

Coastal Water Temperatures

Place Temperature

Nearby Weather Stations